Spring Mountain Youth Camp, Nevada Weather observations

Data are for 60 minute period ending at time listed.
 Day   Time   Solar   Ave.   Ave.  Ave.  Vector  Max.   Baro.   Total    
  of    of     Rad.   Air    Rel.  Wind   Wind   Wind  Press.  Precip.   
Year   Day            Temp.  Hum.  Speed  Dir.   Gust                    
2015   (PST)  Kw/m2    F      %     mph   deg.    mph    mb.     in.     
-------------------------------------------------------------------------
 242    0:00   0.00   62.2    34   15.2   176    30.8   793.6    0.00 
 242    1:00   0.00   62.3    39   20.0   175    34.8   793.2    0.00 
 242    2:00   0.00   62.1    41   20.1   174    34.8   793.0    0.00 
 242    3:00   0.00   62.5    40   21.0   171    39.5   792.9    0.00 
 242    4:00   0.00   61.7    42   18.6   177    34.7   792.9    0.00 
 242    5:00   0.00   61.6    42   12.9   176    32.2   793.0    0.00 
 242    6:00   0.03   61.5    43   12.6   173    34.1   793.1    0.00 
 242    7:00   0.15   63.6    43    8.5   179    27.6   793.5    0.00 
 242    8:00   0.28   64.0    44   13.1   168    43.8   793.5    0.00 
 242    9:00   0.38   64.1    44   15.3   168    47.2   793.6    0.00 
 242   10:00   0.50   65.3    40   14.7   173    41.5   793.8    0.00 
 242   11:00   0.68   66.1    32   20.7   175    40.5   793.6    0.00 
 242   12:00   0.72   66.3    28   16.8   169    37.7   793.6    0.00 
 242   13:00   0.69   66.7    28   13.9   166    24.9   793.4    0.00 
 242   14:00   0.47   68.2    27    8.7   182    20.2   793.2    0.00 
 242   15:00   0.32   67.5    23    5.7   194    15.3   792.9    0.00 
 242   16:00   0.20   66.6    23    5.8   182    14.5   792.8    0.00 
 242   17:00   0.36   67.9    25    7.1   170    16.4   792.5    0.00 
 242   18:00   0.14   67.4    28    4.0   159    18.0   792.3    0.00 
 242   19:00   0.00   62.6    33    2.6    99     4.5   792.3    0.00 
 242   20:00   0.00   62.1    29    2.3    66     5.3   792.6    0.00 
 242   21:00   0.00   62.4    29    4.4    68     7.5   792.9    0.00 
 242   22:00   0.00   61.5    32    3.4   111     6.7   792.9    0.00 

Return to Spring Mountain Youth Camp graphs page.


Western Regional Climate Center,wrcc@dri.edu